Map

Track Data

SID SEASON NUMBER BASIN SUBBASIN NAME ISO_TIME NATURE LAT LON WMO_WIND WMO_PRES WMO_AGENCY TRACK_TYPE DIST2LAND LANDFALL IFLAG USA_AGENCY USA_ATCF_ID USA_LAT USA_LON USA_RECORD USA_STATUS USA_WIND USA_PRES USA_SSHS USA_R34_NE USA_R34_SE USA_R34_SW USA_R34_NW USA_R50_NE USA_R50_SE USA_R50_SW USA_R50_NW USA_R64_NE USA_R64_SE USA_R64_SW USA_R64_NW USA_POCI USA_ROCI USA_RMW USA_EYE TOKYO_LAT TOKYO_LON TOKYO_GRADE TOKYO_WIND TOKYO_PRES TOKYO_R50_DIR TOKYO_R50_LONG TOKYO_R50_SHORT TOKYO_R30_DIR TOKYO_R30_LONG TOKYO_R30_SHORT TOKYO_LAND CMA_LAT CMA_LON CMA_CAT CMA_WIND CMA_PRES HKO_LAT HKO_LON HKO_CAT HKO_WIND HKO_PRES NEWDELHI_LAT NEWDELHI_LON NEWDELHI_GRADE NEWDELHI_WIND NEWDELHI_PRES NEWDELHI_CI NEWDELHI_DP NEWDELHI_POCI REUNION_LAT REUNION_LON REUNION_TYPE REUNION_WIND REUNION_PRES REUNION_TNUM REUNION_CI REUNION_RMW REUNION_R34_NE REUNION_R34_SE REUNION_R34_SW REUNION_R34_NW REUNION_R50_NE REUNION_R50_SE REUNION_R50_SW REUNION_R50_NW REUNION_R64_NE REUNION_R64_SE REUNION_R64_SW REUNION_R64_NW BOM_LAT BOM_LON BOM_TYPE BOM_WIND BOM_PRES BOM_TNUM BOM_CI BOM_RMW BOM_R34_NE BOM_R34_SE BOM_R34_SW BOM_R34_NW BOM_R50_NE BOM_R50_SE BOM_R50_SW BOM_R50_NW BOM_R64_NE BOM_R64_SE BOM_R64_SW BOM_R64_NW BOM_ROCI BOM_POCI BOM_EYE BOM_POS_METHOD BOM_PRES_METHOD NADI_LAT NADI_LON NADI_CAT NADI_WIND NADI_PRES WELLINGTON_LAT WELLINGTON_LON WELLINGTON_WIND WELLINGTON_PRES DS824_LAT DS824_LON DS824_STAGE DS824_WIND DS824_PRES TD9636_LAT TD9636_LON TD9636_STAGE TD9636_WIND TD9636_PRES TD9635_LAT TD9635_LON TD9635_WIND TD9635_PRES TD9635_ROCI NEUMANN_LAT NEUMANN_LON NEUMANN_CLASS NEUMANN_WIND NEUMANN_PRES MLC_LAT MLC_LON MLC_CLASS MLC_WIND MLC_PRES USA_GUST BOM_GUST BOM_GUST_PER REUNION_GUST REUNION_GUST_PER USA_SEAHGT USA_SEARAD_NE USA_SEARAD_SE USA_SEARAD_SW USA_SEARAD_NW STORM_SPEED STORM_DIR
1930206N21143 1930 35 WP MM NOT_NAMED 1930-07-25 10:00:00 NR 21.3000 142.500 main 1503 1461 __________O___ -1 21.3000 142.500 4 15 292
1930206N21143 1930 35 WP MM NOT_NAMED 1930-07-25 12:00:00 NR 21.4853 142.015 main 1461 1403 __________P___ -1 21.4853 142.015 4 15 292
1930206N21143 1930 35 WP MM NOT_NAMED 1930-07-25 15:00:00 NR 21.7613 141.287 main 1403 1357 __________P___ -1 21.7613 141.287 4 15 292
1930206N21143 1930 35 WP MM NOT_NAMED 1930-07-25 18:00:00 NR 22.0355 140.561 main 1357 1299 __________P___ -1 22.0355 140.561 4 15 292
1930206N21143 1930 35 WP MM NOT_NAMED 1930-07-25 21:00:00 NR 22.3089 139.839 main 1299 1283 __________P___ -1 22.3089 139.839 4 14 292
1930206N21143 1930 35 WP MM NOT_NAMED 1930-07-25 22:00:00 NR 22.4000 139.600 main 1283 1242 __________O___ -1 22.4000 139.600 4 14 292
1930206N21143 1930 35 WP MM NOT_NAMED 1930-07-26 00:00:00 NR 22.5823 139.124 main 1242 1173 __________P___ -1 22.5823 139.124 4 14 293
1930206N21143 1930 35 WP MM NOT_NAMED 1930-07-26 03:00:00 NR 22.8565 138.410 main 1173 1115 __________P___ -1 22.8565 138.410 4 14 293
1930206N21143 1930 35 WP MM NOT_NAMED 1930-07-26 06:00:00 NR 23.1316 137.689 main 1115 1049 __________P___ -1 23.1316 137.689 4 15 292
1930206N21143 1930 35 WP MM NOT_NAMED 1930-07-26 09:00:00 NR 23.4077 136.951 main 1049 1024 __________P___ -1 23.4077 136.951 4 15 292
1930206N21143 1930 35 WP MM NOT_NAMED 1930-07-26 10:00:00 NR 23.5000 136.700 main 1024 978 __________O___ -1 23.5000 136.700 4 15 291
1930206N21143 1930 35 WP MM NOT_NAMED 1930-07-26 12:00:00 NR 23.6829 136.181 main 978 908 __________P___ -1 23.6829 136.181 4 15 291
1930206N21143 1930 35 WP MM NOT_NAMED 1930-07-26 15:00:00 NR 23.9576 135.383 main 908 850 __________P___ -1 23.9576 135.383 4 16 291
1930206N21143 1930 35 WP MM NOT_NAMED 1930-07-26 18:00:00 NR 24.2326 134.574 main 850 787 __________P___ -1 24.2326 134.574 4 16 290
1930206N21143 1930 35 WP MM NOT_NAMED 1930-07-26 21:00:00 NR 24.5080 133.767 main 787 765 __________P___ -1 24.5080 133.767 4 16 291
1930206N21143 1930 35 WP MM NOT_NAMED 1930-07-26 22:00:00 NR 24.6000 133.500 main 765 728 __________O___ -1 24.6000 133.500 4 15 292
1930206N21143 1930 35 WP MM NOT_NAMED 1930-07-27 00:00:00 NR 24.7928 132.977 main 728 674 __________P___ -1 24.7928 132.977 4 15 292
1930206N21143 1930 35 WP MM NOT_NAMED 1930-07-27 03:00:00 NR 25.0830 132.200 main 674 628 __________P___ -1 25.0830 132.200 4 15 292
1930206N21143 1930 35 WP MM NOT_NAMED 1930-07-27 06:00:00 NR 25.3633 131.428 main 628 602 __________P___ -1 25.3633 131.428 4 15 291
1930206N21143 1930 35 WP MM NOT_NAMED 1930-07-27 09:00:00 NR 25.6212 130.657 main 602 592 __________P___ -1 25.6212 130.657 4 15 290
1930206N21143 1930 35 WP MM NOT_NAMED 1930-07-27 10:00:00 NR 25.7000 130.400 main 592 574 __________O___ -1 25.7000 130.400 4 15 288
1930206N21143 1930 35 WP MM NOT_NAMED 1930-07-27 12:00:00 NR 25.8603 129.862 main 574 568 __________P___ -1 25.8603 129.862 4 15 287
1930206N21143 1930 35 WP MM NOT_NAMED 1930-07-27 15:00:00 NR 26.0764 129.056 main 568 570 __________P___ -1 26.0764 129.056 4 15 285
1930206N21143 1930 35 WP MM NOT_NAMED 1930-07-27 18:00:00 NR 26.2517 128.271 main 574 572 __________P___ -1 26.2517 128.271 4 14 282
1930206N21143 1930 35 WP MM NOT_NAMED 1930-07-27 21:00:00 NR 26.3734 127.532 main 572 553 __________P___ -1 26.3734 127.532 4 13 280
1930206N21143 1930 35 WP MM NOT_NAMED 1930-07-27 22:00:00 NR 26.4000 127.300 main 553 514 __________O___ -1 26.4000 127.300 4 12 275
1930206N21143 1930 35 WP MM NOT_NAMED 1930-07-28 00:00:00 NR 26.4302 126.867 main 514 457 __________P___ -1 26.4302 126.867 4 11 272
1930206N21143 1930 35 WP MM NOT_NAMED 1930-07-28 03:00:00 NR 26.4263 126.270 main 457 402 __________P___ -1 26.4263 126.270 4 10 267
1930206N21143 1930 35 WP MM NOT_NAMED 1930-07-28 06:00:00 NR 26.3827 125.714 main 402 351 __________P___ -1 26.3827 125.714 4 10 264
1930206N21143 1930 35 WP MM NOT_NAMED 1930-07-28 09:00:00 NR 26.3210 125.178 main 351 333 __________P___ -1 26.3210 125.178 4 10 263
1930206N21143 1930 35 WP MM NOT_NAMED 1930-07-28 10:00:00 NR 26.3000 125.000 main 333 298 __________O___ -1 26.3000 125.000 4 10 264
1930206N21143 1930 35 WP MM NOT_NAMED 1930-07-28 12:00:00 NR 26.2717 124.630 main 298 249 __________P___ -1 26.2717 124.630 4 10 265
1930206N21143 1930 35 WP MM NOT_NAMED 1930-07-28 15:00:00 NR 26.2235 124.082 main 249 201 __________P___ -1 26.2235 124.082 4 10 264
1930206N21143 1930 35 WP MM NOT_NAMED 1930-07-28 18:00:00 NR 26.1711 123.536 main 201 158 __________P___ -1 26.1711 123.536 4 10 264
1930206N21143 1930 35 WP MM NOT_NAMED 1930-07-28 21:00:00 NR 26.1175 122.985 main 158 146 __________P___ -1 26.1175 122.985 4 10 264
1930206N21143 1930 35 WP MM NOT_NAMED 1930-07-28 22:00:00 NR 26.1000 122.800 main 146 128 __________O___ -1 26.1000 122.800 4 10 264
1930206N21143 1930 35 WP MM NOT_NAMED 1930-07-29 00:00:00 NR 26.0687 122.428 main 128 94 __________P___ -1 26.0687 122.428 4 10 265
1930206N21143 1930 35 WP MM NOT_NAMED 1930-07-29 03:00:00 NR 26.0222 121.863 main 94 89 __________P___ -1 26.0222 121.863 4 10 265
1930206N21143 1930 35 WP MM NOT_NAMED 1930-07-29 06:00:00 NR 25.9736 121.288 main 89 87 __________P___ -1 25.9736 121.288 4 11 264
1930206N21143 1930 35 WP MM NOT_NAMED 1930-07-29 09:00:00 NR 25.9197 120.700 main 98 79 __________P___ -1 25.9197 120.700 4 11 264
1930206N21143 1930 35 WP MM NOT_NAMED 1930-07-29 10:00:00 NR 25.9000 120.500 main 79 39 __________O___ -1 25.9000 120.500 4 11 263
1930206N21143 1930 35 WP MM NOT_NAMED 1930-07-29 12:00:00 NR 25.8577 120.095 main 39 0 __________P___ -1 25.8577 120.095 4 11 263
1930206N21143 1930 35 WP MM NOT_NAMED 1930-07-29 15:00:00 NR 25.7874 119.476 main 0 0 __________P___ -1 25.7874 119.476 4 11 263
1930206N21143 1930 35 WP MM NOT_NAMED 1930-07-29 18:00:00 NR 25.7103 118.846 main 0 0 __________P___ -1 25.7103 118.846 4 11 262
1930206N21143 1930 35 WP MM NOT_NAMED 1930-07-29 21:00:00 NR 25.6282 118.212 main 0 0 __________P___ -1 25.6282 118.212 4 12 262
1930206N21143 1930 35 WP MM NOT_NAMED 1930-07-29 22:00:00 NR 25.6000 118.000 main 0 __________O___ -1 25.6000 118.000 2 12 262

Digital Typhoon Data and Search

About IBTrACS Database

This database is a web-friendly format of International Best Track Archive for Climate Stewardship (IBTrACS), a global best track data archive curated by NOAA dating back to 1842.

Updated: 2021-11-26